createdAt,value
2023-05-12T00:02:28.133Z,31.10
2023-05-12T00:04:18.613Z,30.70
2023-05-12T00:08:08.387Z,29.50
2023-05-12T00:11:56.187Z,37.00
2023-05-12T00:13:55.801Z,36.50
2023-05-12T00:15:53.587Z,40.80
2023-05-12T00:17:24.325Z,40.50
2023-05-12T00:28:35.282Z,45.30
2023-05-12T00:30:33.261Z,55.70
2023-05-12T00:32:03.261Z,56.30
2023-05-12T00:33:53.438Z,55.80
2023-05-12T00:36:21.064Z,52.10
2023-05-12T00:38:29.574Z,56.80
2023-05-12T00:45:00.820Z,62.80
2023-05-12T00:46:31.607Z,58.90
2023-05-12T00:48:30.706Z,67.40
2023-05-12T00:52:19.637Z,61.80
2023-05-12T00:54:41.413Z,62.20
2023-05-12T00:57:39.687Z,62.20
2023-05-12T01:02:49.043Z,62.20
2023-05-12T01:04:17.219Z,65.90
2023-05-12T01:06:14.812Z,79.90
2023-05-12T01:10:52.279Z,65.70
2023-05-12T01:13:41.549Z,74.60
2023-05-12T01:17:30.563Z,70.00
2023-05-12T01:20:28.199Z,71.20
2023-05-12T01:27:18.612Z,81.00
2023-05-12T01:34:17.240Z,74.20
2023-05-12T01:36:38.943Z,79.90
2023-05-12T01:45:14.343Z,88.40
2023-05-12T01:47:04.037Z,84.70
2023-05-12T01:49:02.887Z,83.00
2023-05-12T01:52:03.237Z,89.00
2023-05-12T01:53:32.607Z,84.10
2023-05-12T01:58:09.333Z,84.80
2023-05-12T02:00:09.318Z,98.30
2023-05-12T02:02:08.121Z,86.70
2023-05-12T02:04:55.732Z,82.40
2023-05-12T02:07:54.529Z,84.00
2023-05-12T02:11:20.049Z,85.40
2023-05-12T02:13:29.869Z,83.60
2023-05-12T02:14:59.738Z,85.60
2023-05-12T02:17:59.998Z,81.70
2023-05-12T02:19:27.930Z,88.40
2023-05-12T02:24:44.980Z,87.30
2023-05-12T02:28:32.618Z,89.00
2023-05-12T02:30:03.862Z,80.60
2023-05-12T02:31:32.035Z,80.50
2023-05-12T02:34:00.931Z,84.60
2023-05-12T02:40:16.204Z,78.80
2023-05-12T02:41:47.054Z,88.00
2023-05-12T02:44:44.746Z,83.80
2023-05-12T02:46:33.656Z,85.40
2023-05-12T02:48:02.457Z,83.20
2023-05-12T02:49:33.146Z,78.20
2023-05-12T02:53:54.362Z,89.30
2023-05-12T02:55:52.308Z,85.70
2023-05-12T03:04:01.693Z,91.20
2023-05-12T03:05:59.938Z,83.00
2023-05-12T03:10:20.670Z,78.10
2023-05-12T03:11:50.368Z,81.90
2023-05-12T03:14:10.054Z,83.90
2023-05-12T03:18:45.823Z,87.90
2023-05-12T03:20:24.546Z,82.50
2023-05-12T03:22:16.161Z,80.70
2023-05-12T03:28:27.051Z,78.50
2023-05-12T03:29:56.196Z,87.40
2023-05-12T03:31:26.170Z,80.90
2023-05-12T03:34:28.962Z,78.00
2023-05-12T03:36:18.993Z,80.00
2023-05-12T03:39:09.783Z,87.00
2023-05-12T03:42:04.722Z,91.00
2023-05-12T03:51:35.178Z,87.60
2023-05-12T03:59:57.168Z,82.50
2023-05-12T04:06:28.438Z,83.40
2023-05-12T04:07:55.809Z,78.40
2023-05-12T04:13:38.660Z,92.50
2023-05-12T04:15:52.348Z,94.40
2023-05-12T04:18:32.248Z,82.40
2023-05-12T04:26:46.758Z,82.90
2023-05-12T04:30:06.576Z,83.00
2023-05-12T04:31:54.014Z,84.10
2023-05-12T04:34:27.559Z,79.20
2023-05-12T04:38:58.438Z,71.60
2023-05-12T04:41:44.843Z,72.80
2023-05-12T04:45:16.819Z,75.60
2023-05-12T04:47:56.826Z,73.60
2023-05-12T04:49:46.191Z,72.10
2023-05-12T04:52:55.563Z,70.40
2023-05-12T04:54:47.496Z,74.10
2023-05-12T04:57:04.299Z,62.60
2023-05-12T05:00:25.240Z,68.10
2023-05-12T05:03:06.410Z,65.50
2023-05-12T05:09:01.404Z,64.60
2023-05-12T05:19:50.732Z,65.70
2023-05-12T05:22:32.691Z,59.40
2023-05-12T05:25:19.366Z,58.20
2023-05-12T05:27:38.004Z,54.40
2023-05-12T05:29:06.582Z,56.20
2023-05-12T05:30:39.045Z,53.30
2023-05-12T05:32:59.372Z,55.90
2023-05-12T05:35:15.851Z,54.90
2023-05-12T05:38:06.973Z,53.20
2023-05-12T05:39:39.851Z,54.20
2023-05-12T05:40:51.509Z,51.50
2023-05-12T05:41:38.890Z,53.20
2023-05-12T05:42:37.950Z,52.60
2023-05-12T05:44:35.858Z,48.80
2023-05-12T05:46:06.942Z,51.40
2023-05-12T05:48:38.274Z,49.00
2023-05-12T05:52:50.794Z,41.50
2023-05-12T05:54:19.240Z,40.00
2023-05-12T05:55:47.314Z,44.20
2023-05-12T05:58:32.755Z,40.80
2023-05-12T05:59:42.849Z,41.00
2023-05-12T06:01:33.459Z,35.90
2023-05-12T06:04:57.025Z,37.70
2023-05-12T06:10:59.379Z,36.20
2023-05-12T06:15:20.945Z,34.40
2023-05-12T06:20:25.116Z,28.80
2023-05-12T06:23:56.410Z,30.70
2023-05-12T06:26:55.776Z,28.80
2023-05-12T06:28:26.466Z,28.80
2023-05-12T06:29:55.952Z,30.10
2023-05-12T06:32:36.392Z,30.80
2023-05-12T06:35:22.688Z,26.30
2023-05-12T06:38:13.632Z,26.90
2023-05-12T06:41:43.671Z,23.30
2023-05-12T06:43:12.018Z,22.60
2023-05-12T06:45:10.627Z,22.20
2023-05-12T06:48:08.006Z,19.70
2023-05-12T06:50:47.785Z,21.30
2023-05-12T06:52:48.592Z,23.50
2023-05-12T06:54:20.543Z,23.70
2023-05-12T07:02:10.787Z,20.70
2023-05-12T07:08:36.383Z,21.70
2023-05-12T07:11:36.093Z,21.70
2023-05-12T07:13:39.644Z,20.50
2023-05-12T07:18:28.777Z,19.20
2023-05-12T07:20:00.496Z,19.70
2023-05-12T07:25:03.698Z,19.80
2023-05-12T07:26:35.561Z,19.30
2023-05-12T07:31:10.101Z,18.60
2023-05-12T07:33:45.266Z,15.40
2023-05-12T07:35:14.178Z,15.00
2023-05-12T07:38:56.593Z,15.60
2023-05-12T07:42:25.979Z,14.80
2023-05-12T07:43:54.214Z,14.70
2023-05-12T07:45:26.448Z,17.00
2023-05-12T07:47:52.093Z,15.10
2023-05-12T07:50:15.643Z,13.50
2023-05-12T07:51:43.495Z,12.30
2023-05-12T07:54:44.583Z,12.90
2023-05-12T07:56:15.447Z,12.40
2023-05-12T07:59:44.577Z,12.30
2023-05-12T08:03:57.723Z,12.00
2023-05-12T08:05:29.667Z,10.70
2023-05-12T08:12:04.281Z,9.80
2023-05-12T08:14:33.096Z,9.40
2023-05-12T08:16:04.326Z,7.10
2023-05-12T08:17:34.705Z,9.40
2023-05-12T08:19:34.923Z,6.60
2023-05-12T08:21:53.499Z,9.50
2023-05-12T08:23:25.312Z,9.50
2023-05-12T08:24:51.328Z,9.50
2023-05-12T08:26:21.206Z,9.50
2023-05-12T08:27:51.708Z,9.30
2023-05-12T08:29:55.356Z,9.00
2023-05-12T08:30:51.513Z,9.00
2023-05-12T08:31:51.488Z,9.60
2023-05-12T08:39:46.324Z,9.30
2023-05-12T08:43:13.792Z,8.50
2023-05-12T08:50:31.604Z,7.50
2023-05-12T08:54:17.340Z,8.40
2023-05-12T08:55:57.125Z,8.20
2023-05-12T08:57:17.124Z,25.80
2023-05-12T09:00:38.818Z,8.00
2023-05-12T09:06:33.426Z,7.20
2023-05-12T09:08:29.489Z,7.70
2023-05-12T09:11:32.364Z,8.00
2023-05-12T09:19:21.255Z,6.90
2023-05-12T09:24:25.526Z,5.60
2023-05-12T09:25:57.999Z,6.30
2023-05-12T09:27:56.592Z,5.20
2023-05-12T09:29:31.821Z,6.40
2023-05-12T09:31:46.951Z,8.70
2023-05-12T09:33:16.020Z,6.40
2023-05-12T09:39:33.771Z,6.10
2023-05-12T09:41:53.631Z,6.20
2023-05-12T09:48:28.106Z,5.80
2023-05-12T09:52:58.762Z,4.70
2023-05-12T09:54:27.940Z,4.90
2023-05-12T09:58:58.345Z,5.10
2023-05-12T10:04:50.595Z,4.40
2023-05-12T10:06:19.327Z,3.70
2023-05-12T10:08:08.069Z,4.10
2023-05-12T10:09:41.096Z,4.60
2023-05-12T10:12:11.346Z,4.80
2023-05-12T10:16:48.918Z,4.00
2023-05-12T10:19:20.844Z,4.60
2023-05-12T10:23:26.906Z,3.90
2023-05-12T10:24:55.886Z,4.50
2023-05-12T10:28:27.872Z,4.50
2023-05-12T10:30:26.706Z,4.40
2023-05-12T10:34:50.376Z,4.70
2023-05-12T10:36:50.593Z,5.50
2023-05-12T10:38:48.051Z,4.30
2023-05-12T10:43:08.391Z,5.40
2023-05-12T10:44:37.276Z,4.10
2023-05-12T10:46:06.152Z,4.00
2023-05-12T10:48:04.313Z,5.00
2023-05-12T10:52:02.720Z,5.60
2023-05-12T10:54:07.211Z,5.50
2023-05-12T10:55:40.416Z,4.30
2023-05-12T10:57:07.401Z,4.90
2023-05-12T11:00:35.112Z,5.00
2023-05-12T11:03:30.416Z,5.40
2023-05-12T11:04:39.952Z,7.10
2023-05-12T11:06:07.439Z,5.70
2023-05-12T11:07:39.637Z,5.70
2023-05-12T11:09:09.062Z,6.90
2023-05-12T11:10:37.308Z,7.20
2023-05-12T11:12:38.422Z,5.60
2023-05-12T11:15:18.505Z,5.40
2023-05-12T11:18:18.141Z,4.50
2023-05-12T11:21:16.891Z,4.90
2023-05-12T11:22:44.051Z,7.20
2023-05-12T11:24:13.055Z,6.80
2023-05-12T11:25:13.051Z,5.60
2023-05-12T11:26:13.009Z,4.40
2023-05-12T11:29:12.692Z,5.30
2023-05-12T11:31:45.809Z,5.50
2023-05-12T11:33:14.188Z,5.30
2023-05-12T11:34:42.583Z,5.30
2023-05-12T11:36:32.538Z,10.20
2023-05-12T11:38:08.949Z,5.20
2023-05-12T11:40:30.819Z,5.40
2023-05-12T11:42:19.722Z,5.10
2023-05-12T11:46:35.155Z,6.30
2023-05-12T11:52:51.064Z,5.60
2023-05-12T11:54:20.699Z,4.30
2023-05-12T11:57:32.338Z,3.90
2023-05-12T12:00:00.938Z,5.00
2023-05-12T12:05:50.172Z,5.50
2023-05-12T12:10:13.316Z,7.00
2023-05-12T12:12:42.782Z,3.90
2023-05-12T12:16:53.194Z,3.40
2023-05-12T12:18:52.930Z,3.60
2023-05-12T12:21:25.996Z,4.50
2023-05-12T12:22:54.913Z,6.50
2023-05-12T12:23:54.838Z,4.40
2023-05-12T12:24:54.870Z,4.30
2023-05-12T12:25:56.485Z,5.50
2023-05-12T12:27:57.589Z,4.00
2023-05-12T12:29:25.809Z,5.70
2023-05-12T12:32:13.083Z,5.00
2023-05-12T12:33:42.554Z,7.30
2023-05-12T12:35:12.450Z,6.10
2023-05-12T12:36:42.347Z,3.90
2023-05-12T12:41:41.802Z,4.10
2023-05-12T12:45:20.240Z,5.00
2023-05-12T12:46:46.531Z,4.10
2023-05-12T12:48:16.521Z,6.00
2023-05-12T12:50:15.793Z,4.10
2023-05-12T12:52:15.603Z,5.40
2023-05-12T12:56:49.047Z,5.20
2023-05-12T12:59:44.700Z,3.80
2023-05-12T13:04:05.968Z,3.70
2023-05-12T13:07:02.069Z,3.50
2023-05-12T13:10:32.977Z,5.30
2023-05-12T13:17:47.764Z,3.60
2023-05-12T13:19:50.583Z,10.00
2023-05-12T13:21:48.208Z,3.70
2023-05-12T13:24:58.373Z,9.40
2023-05-12T13:26:56.354Z,5.00
2023-05-12T13:28:27.237Z,3.70
2023-05-12T13:33:40.819Z,5.20
2023-05-12T13:35:10.919Z,3.20
2023-05-12T13:36:39.915Z,6.50
2023-05-12T13:38:45.586Z,4.40
2023-05-12T13:42:09.664Z,3.80
2023-05-12T13:43:38.518Z,5.90
2023-05-12T13:45:40.324Z,5.60
2023-05-12T13:47:39.408Z,5.80
2023-05-12T13:51:25.229Z,5.50
2023-05-12T13:54:54.712Z,3.90
2023-05-12T13:56:43.446Z,4.00
2023-05-12T13:58:04.388Z,6.10
2023-05-12T13:58:43.391Z,5.00
2023-05-12T14:01:01.041Z,5.40
2023-05-12T14:04:00.160Z,4.00
2023-05-12T14:07:29.808Z,6.70
2023-05-12T14:10:00.361Z,7.50
2023-05-12T14:13:47.011Z,4.20
2023-05-12T14:15:49.263Z,6.60
2023-05-12T14:18:43.805Z,5.10
2023-05-12T14:21:32.544Z,4.80
2023-05-12T14:23:01.402Z,3.70
2023-05-12T14:24:30.370Z,5.30
2023-05-12T14:26:20.235Z,5.30
2023-05-12T14:27:52.208Z,8.80
2023-05-12T14:29:52.581Z,4.20
2023-05-12T14:33:24.557Z,4.10
2023-05-12T14:35:13.447Z,4.80
2023-05-12T14:46:44.350Z,3.50
2023-05-12T14:48:38.358Z,4.60
2023-05-12T14:52:36.899Z,4.40
2023-05-12T14:58:30.969Z,4.40
2023-05-12T14:59:59.296Z,4.00
2023-05-12T15:01:49.549Z,5.50
2023-05-12T15:03:21.664Z,2.90
2023-05-12T15:12:01.504Z,3.00
2023-05-12T15:15:55.282Z,6.00
2023-05-12T15:17:22.817Z,4.80
2023-05-12T15:19:52.849Z,4.60
2023-05-12T15:25:33.834Z,5.60
2023-05-12T15:28:28.155Z,5.20
2023-05-12T15:30:14.962Z,5.60
2023-05-12T15:32:34.878Z,4.10
2023-05-12T15:34:41.766Z,4.30
2023-05-12T15:38:39.022Z,4.90
2023-05-12T15:42:33.295Z,4.10
2023-05-12T15:44:03.457Z,4.70
2023-05-12T15:46:37.531Z,3.10
2023-05-12T15:49:42.670Z,2.60
2023-05-12T15:53:30.789Z,4.80
2023-05-12T15:56:15.478Z,5.10
2023-05-12T15:58:34.867Z,8.50
2023-05-12T16:02:16.752Z,6.70
2023-05-12T16:05:08.399Z,3.00
2023-05-12T16:07:05.306Z,4.00
2023-05-12T16:12:15.771Z,4.50
2023-05-12T16:14:52.910Z,3.60
2023-05-12T16:19:03.387Z,4.80
2023-05-12T16:22:15.072Z,6.50
2023-05-12T16:24:17.053Z,3.10
2023-05-12T16:26:34.946Z,5.80
2023-05-12T16:28:24.383Z,4.30
2023-05-12T16:42:30.115Z,13.20
2023-05-12T16:45:06.997Z,3.00
2023-05-12T16:47:07.164Z,7.50
2023-05-12T16:53:48.923Z,2.90
2023-05-12T16:55:22.521Z,4.90
2023-05-12T16:57:43.251Z,7.40
2023-05-12T17:03:18.115Z,4.50
2023-05-12T17:06:08.854Z,7.50
2023-05-12T17:07:34.966Z,5.30
2023-05-12T17:10:25.607Z,3.30
2023-05-12T17:14:55.915Z,3.20
2023-05-12T17:18:11.607Z,3.30
2023-05-12T17:19:40.352Z,5.20
2023-05-12T17:21:09.187Z,3.00
2023-05-12T17:25:49.291Z,3.10
2023-05-12T17:28:20.180Z,3.70
2023-05-12T17:30:20.517Z,4.40
2023-05-12T17:39:04.217Z,7.30
2023-05-12T17:41:03.187Z,3.60
2023-05-12T17:43:03.408Z,3.20
2023-05-12T17:45:39.093Z,3.20
2023-05-12T17:48:12.709Z,6.90
2023-05-12T17:49:41.582Z,3.50
2023-05-12T17:51:10.524Z,3.10
2023-05-12T17:53:08.747Z,4.50
2023-05-12T17:54:29.721Z,7.60
2023-05-12T17:55:08.712Z,3.60
2023-05-12T17:56:08.746Z,3.60
2023-05-12T18:02:02.677Z,3.70
2023-05-12T18:05:20.935Z,4.00
2023-05-12T18:09:17.689Z,7.00
2023-05-12T18:12:07.542Z,6.20
2023-05-12T18:13:36.461Z,5.10
2023-05-12T18:19:06.753Z,7.60
2023-05-12T18:21:05.470Z,5.20
2023-05-12T18:22:34.886Z,5.70
2023-05-12T18:26:10.236Z,3.20
2023-05-12T18:32:20.392Z,5.20
2023-05-12T18:36:26.190Z,5.60
2023-05-12T18:39:53.631Z,4.90
2023-05-12T18:41:22.493Z,5.60
2023-05-12T18:42:54.310Z,6.10
2023-05-12T18:46:21.277Z,10.60
2023-05-12T18:47:50.621Z,11.80
2023-05-12T18:51:01.836Z,8.20
2023-05-12T18:53:00.376Z,8.60
2023-05-12T18:57:38.129Z,5.80
2023-05-12T18:59:05.212Z,8.40
2023-05-12T19:00:34.371Z,8.70
2023-05-12T19:03:10.496Z,10.30
2023-05-12T19:05:40.337Z,4.90
2023-05-12T19:07:12.074Z,10.00
2023-05-12T19:09:27.861Z,7.70
2023-05-12T19:10:59.723Z,5.90
2023-05-12T19:13:33.433Z,4.90
2023-05-12T19:16:06.972Z,4.50
2023-05-12T19:18:05.064Z,8.10
2023-05-12T19:22:57.786Z,12.60
2023-05-12T19:23:57.719Z,12.50
2023-05-12T19:24:57.714Z,10.30
2023-05-12T19:25:57.739Z,9.60
2023-05-12T19:28:16.005Z,7.80
2023-05-12T19:30:14.048Z,5.00
2023-05-12T19:34:00.921Z,7.60
2023-05-12T19:36:02.514Z,7.90
2023-05-12T19:37:31.344Z,7.60
2023-05-12T19:39:00.244Z,4.10
2023-05-12T19:43:28.088Z,4.30
2023-05-12T19:47:49.297Z,4.70
2023-05-12T19:51:20.916Z,6.20
2023-05-12T19:53:24.776Z,4.70
2023-05-12T19:54:53.671Z,4.70
2023-05-12T19:58:24.468Z,9.90
2023-05-12T20:01:21.212Z,4.80
2023-05-12T20:04:49.428Z,4.40
2023-05-12T20:07:51.274Z,5.20
2023-05-12T20:10:21.596Z,5.00
2023-05-12T20:12:19.352Z,4.40
2023-05-12T20:13:51.316Z,4.50
2023-05-12T20:18:51.743Z,11.90
2023-05-12T20:22:49.775Z,7.30
2023-05-12T20:24:47.484Z,7.50
2023-05-12T20:26:16.453Z,4.90
2023-05-12T20:27:16.440Z,4.40
2023-05-12T20:28:16.418Z,6.80
2023-05-12T20:30:19.441Z,7.00
2023-05-12T20:31:46.751Z,4.20
2023-05-12T20:33:15.537Z,6.50
2023-05-12T20:34:44.377Z,6.00
2023-05-12T20:37:15.781Z,3.80
2023-05-12T20:42:04.549Z,8.60
2023-05-12T20:45:04.430Z,6.10
2023-05-12T20:49:11.173Z,5.60
2023-05-12T20:50:40.130Z,4.10
2023-05-12T20:52:11.948Z,3.50
2023-05-12T20:57:18.040Z,7.20
2023-05-12T20:59:06.079Z,6.30
2023-05-12T21:00:40.167Z,5.30
2023-05-12T21:04:55.244Z,3.70
2023-05-12T21:09:57.635Z,4.50
2023-05-12T21:11:26.678Z,6.00
2023-05-12T21:14:19.893Z,3.90
2023-05-12T21:16:21.029Z,4.80
2023-05-12T21:19:17.419Z,5.80
2023-05-12T21:21:18.357Z,6.10
2023-05-12T21:23:15.938Z,5.50
2023-05-12T21:24:49.244Z,7.60
2023-05-12T21:26:20.136Z,4.10
2023-05-12T21:27:48.971Z,5.00
2023-05-12T21:29:18.015Z,4.00
2023-05-12T21:30:47.081Z,5.00
2023-05-12T21:32:18.031Z,4.60
2023-05-12T21:33:48.985Z,6.70
2023-05-12T21:40:20.147Z,5.50
2023-05-12T21:43:55.190Z,3.70
2023-05-12T21:45:27.629Z,6.90
2023-05-12T21:47:30.421Z,5.10
2023-05-12T21:50:42.925Z,5.00
2023-05-12T21:55:54.629Z,3.90
2023-05-12T21:57:53.743Z,4.00
2023-05-12T21:59:44.134Z,4.30
2023-05-12T22:01:35.900Z,4.80
2023-05-12T22:05:56.745Z,9.00
2023-05-12T22:07:28.971Z,3.70
2023-05-12T22:09:44.937Z,4.70
2023-05-12T22:11:13.812Z,7.60
2023-05-12T22:15:41.763Z,3.80
2023-05-12T22:17:31.226Z,8.00
2023-05-12T22:20:52.546Z,5.50
2023-05-12T22:23:14.549Z,4.20
2023-05-12T22:25:42.654Z,5.30
2023-05-12T22:29:53.825Z,6.30
2023-05-12T22:33:32.448Z,8.40
2023-05-12T22:36:43.891Z,5.70
2023-05-12T22:39:25.433Z,4.60
2023-05-12T22:43:44.218Z,5.20
2023-05-12T22:46:04.858Z,5.50
2023-05-12T22:53:18.943Z,8.00
2023-05-12T23:02:23.939Z,4.40
2023-05-12T23:06:24.883Z,3.70
2023-05-12T23:10:36.723Z,4.70
2023-05-12T23:14:05.161Z,4.70
2023-05-12T23:23:05.620Z,5.10
2023-05-12T23:24:37.501Z,5.70
2023-05-12T23:27:30.356Z,4.00
2023-05-12T23:29:01.441Z,5.60
2023-05-12T23:36:38.049Z,5.20
2023-05-12T23:38:07.728Z,6.50
2023-05-12T23:39:04.966Z,6.90
2023-05-12T23:43:06.176Z,7.60
2023-05-12T23:45:40.029Z,9.20
2023-05-12T23:47:59.589Z,7.50
2023-05-12T23:52:28.494Z,4.60
2023-05-12T23:55:28.954Z,5.00
2023-05-12T23:59:08.586Z,5.50
